Time;durP1;ratioP1;P1;durP2;ratioP2;P2;SDS_P1;SDS_P2;PMS_P1;PMS_P2;Temp;Humidity;BMP_temperature;BMP_pressure;BME280_temperature;BME280_humidity;BME280_pressure;Samples;Min_cycle;Max_cycle;Signal;HPM_P1;HPM_P2
2022/04/05 00:01:51;;;;;;;9.20;6.10;;;;;;;;;;5032315;28;20028;-50
2022/04/05 00:04:17;;;;;;;12.23;6.68;;;;;;;;;;5035457;28;20103;-52
2022/04/05 00:06:43;;;;;;;10.80;7.38;;;;;;;;;;5024319;28;20080;-49
2022/04/05 00:09:09;;;;;;;13.27;7.78;;;;;;;;;;5024098;28;20215;-47
2022/04/05 00:11:35;;;;;;;11.82;7.57;;;;;;;;;;5025692;28;20087;-50
2022/04/05 00:14:01;;;;;;;13.15;7.68;;;;;;;;;;5027563;28;20026;-47
2022/04/05 00:16:27;;;;;;;12.82;8.40;;;;;;;;;;5023770;28;20025;-48
2022/04/05 00:18:53;;;;;;;15.00;8.35;;;;;;;;;;5024748;28;20029;-48
2022/04/05 00:21:19;;;;;;;11.65;7.35;;;;;;;;;;5023330;28;20503;-47
2022/04/05 00:23:45;;;;;;;11.35;7.18;;;;;;;;;;5023741;28;20343;-51
2022/04/05 00:26:11;;;;;;;11.18;7.00;;;;;;;;;;5023575;28;20543;-48
2022/04/05 00:28:38;;;;;;;11.65;7.43;;;;;;;;;;5023914;28;20026;-48
2022/04/05 00:31:05;;;;;;;10.40;7.18;;;;;;;;;;5022591;28;20580;-49
2022/04/05 00:33:31;;;;;;;11.68;6.50;;;;;;;;;;5035042;28;20616;-47
2022/04/05 00:35:57;;;;;;;12.50;6.80;;;;;;;;;;5025020;28;20424;-50
2022/04/05 00:38:23;;;;;;;9.85;6.10;;;;;;;;;;5024125;28;20125;-49
2022/04/05 00:40:49;;;;;;;9.48;6.18;;;;;;;;;;5023907;28;20132;-52
2022/04/05 00:43:16;;;;;;;9.73;6.15;;;;;;;;;;5036404;28;20032;-49
2022/04/05 00:45:43;;;;;;;11.73;6.68;;;;;;;;;;5026146;28;20033;-50
2022/04/05 00:48:10;;;;;;;12.15;7.20;;;;;;;;;;5023441;28;20104;-49
2022/04/05 00:50:38;;;;;;;11.68;7.30;;;;;;;;;;5024884;28;20049;-51
2022/04/05 00:53:07;;;;;;;12.45;7.95;;;;;;;;;;5027844;28;20029;-48
2022/04/05 00:55:34;;;;;;;11.35;7.35;;;;;;;;;;5026952;28;20087;-50
2022/04/05 00:58:02;;;;;;;12.02;7.28;;;;;;;;;;5027971;28;20033;-49
2022/04/05 01:00:28;;;;;;;10.88;7.50;;;;;;;;;;5030205;28;20166;-48
2022/04/05 01:02:54;;;;;;;11.38;7.32;;;;;;;;;;5029971;28;20037;-48
2022/04/05 01:05:22;;;;;;;10.85;7.55;;;;;;;;;;5029784;28;20477;-48
2022/04/05 01:07:49;;;;;;;11.75;7.53;;;;;;;;;;5029343;28;20116;-51
2022/04/05 01:10:16;;;;;;;10.63;6.88;;;;;;;;;;5029070;28;20033;-51
2022/04/05 01:12:42;;;;;;;9.65;5.95;;;;;;;;;;5029117;28;20082;-52
2022/04/05 01:15:09;;;;;;;9.25;6.18;;;;;;;;;;5029150;28;20029;-48
2022/04/05 01:17:37;;;;;;;10.15;6.28;;;;;;;;;;5028206;28;20045;-50
2022/04/05 01:20:03;;;;;;;11.40;6.43;;;;;;;;;;5027626;28;20025;-50
2022/04/05 01:22:29;;;;;;;8.48;5.63;;;;;;;;;;5026649;28;20088;-51
2022/04/05 01:24:56;;;;;;;10.10;6.43;;;;;;;;;;5027414;28;20025;-48
2022/04/05 01:27:27;;;;;;;10.10;6.43;;;;;;;;;;5027675;28;20021;-50
2022/04/05 01:29:54;;;;;;;9.52;6.20;;;;;;;;;;5028107;28;20072;-50
2022/04/05 01:32:20;;;;;;;10.85;6.30;;;;;;;;;;5026778;28;20030;-51
2022/04/05 01:34:46;;;;;;;9.43;5.57;;;;;;;;;;5027494;28;20029;-49
2022/04/05 01:37:12;;;;;;;8.77;5.82;;;;;;;;;;5027143;28;20104;-50
2022/04/05 01:39:40;;;;;;;8.30;5.53;;;;;;;;;;5027242;28;20495;-48
2022/04/05 01:42:08;;;;;;;9.05;5.65;;;;;;;;;;5026428;28;20107;-47
2022/04/05 01:44:36;;;;;;;17.05;8.90;;;;;;;;;;5027827;28;20044;-49
2022/04/05 01:47:12;;;;;;;16.88;9.35;;;;;;;;;;5026970;28;20032;-48
2022/04/05 01:49:40;;;;;;;22.10;12.25;;;;;;;;;;5026994;28;20017;-51
2022/04/05 01:52:06;;;;;;;20.42;11.90;;;;;;;;;;5027003;28;20037;-51
2022/04/05 01:54:32;;;;;;;19.00;11.70;;;;;;;;;;5026849;28;20041;-50
2022/04/05 01:56:59;;;;;;;18.27;11.05;;;;;;;;;;5027044;28;20036;-50
2022/04/05 01:59:26;;;;;;;16.25;10.38;;;;;;;;;;5034431;28;20033;-50
2022/04/05 02:01:53;;;;;;;17.88;10.77;;;;;;;;;;5036225;28;20076;-50
2022/04/05 02:04:20;;;;;;;17.75;11.20;;;;;;;;;;5026720;28;20034;-48
2022/04/05 02:06:46;;;;;;;18.80;11.82;;;;;;;;;;5026588;28;20033;-51
2022/04/05 02:09:14;;;;;;;17.20;10.80;;;;;;;;;;5026285;28;20025;-51
2022/04/05 02:11:47;;;;;;;17.40;10.27;;;;;;;;;;5026134;28;20406;-48
2022/04/05 02:14:14;;;;;;;14.70;9.27;;;;;;;;;;5026561;28;20528;-51
2022/04/05 02:16:40;;;;;;;11.70;7.82;;;;;;;;;;5026259;28;20030;-47
2022/04/05 02:19:09;;;;;;;11.77;7.55;;;;;;;;;;5026821;28;20382;-50
2022/04/05 02:21:35;;;;;;;13.23;7.82;;;;;;;;;;5028409;28;20156;-52
2022/04/05 02:24:01;;;;;;;10.82;6.93;;;;;;;;;;5046214;28;20507;-50
2022/04/05 02:26:29;;;;;;;13.98;7.13;;;;;;;;;;5046172;28;20108;-51
2022/04/05 02:28:55;;;;;;;10.85;6.95;;;;;;;;;;5046865;28;20377;-47
2022/04/05 02:31:21;;;;;;;11.00;6.72;;;;;;;;;;5044652;28;20028;-47
2022/04/05 02:33:47;;;;;;;11.43;6.97;;;;;;;;;;5026532;28;20030;-50
2022/04/05 02:36:14;;;;;;;11.60;7.40;;;;;;;;;;5026021;28;20096;-48
2022/04/05 02:38:40;;;;;;;11.32;6.85;;;;;;;;;;5026275;28;20065;-50
2022/04/05 02:41:06;;;;;;;11.45;7.32;;;;;;;;;;5026427;28;20033;-51
2022/04/05 02:43:34;;;;;;;11.80;7.88;;;;;;;;;;5026332;28;20064;-50
2022/04/05 02:46:00;;;;;;;10.25;7.00;;;;;;;;;;5025853;28;20025;-50
2022/04/05 02:48:26;;;;;;;10.30;6.65;;;;;;;;;;5026162;28;20033;-47
2022/04/05 02:50:53;;;;;;;10.80;7.53;;;;;;;;;;5026936;28;20018;-51
2022/04/05 02:53:19;;;;;;;13.95;8.30;;;;;;;;;;5025012;28;20338;-49
2022/04/05 02:55:45;;;;;;;13.45;8.57;;;;;;;;;;5026386;28;20522;-48
2022/04/05 02:58:12;;;;;;;13.57;8.32;;;;;;;;;;5025636;28;20521;-48
2022/04/05 03:00:38;;;;;;;14.07;8.77;;;;;;;;;;5025819;28;20495;-51
2022/04/05 03:03:05;;;;;;;13.63;8.80;;;;;;;;;;5024221;28;20029;-48
2022/04/05 03:05:31;;;;;;;14.70;8.38;;;;;;;;;;5036929;28;20503;-50
2022/04/05 03:07:58;;;;;;;14.23;8.02;;;;;;;;;;5036147;28;20494;-47
2022/04/05 03:10:25;;;;;;;13.88;8.25;;;;;;;;;;5027128;28;20029;-49
2022/04/05 03:12:52;;;;;;;13.15;7.93;;;;;;;;;;5026781;28;20033;-48
2022/04/05 03:15:19;;;;;;;13.43;8.40;;;;;;;;;;5047143;28;20508;-52
2022/04/05 03:17:46;;;;;;;13.52;8.55;;;;;;;;;;5045742;28;20025;-48
2022/04/05 03:20:12;;;;;;;13.40;8.43;;;;;;;;;;5046998;28;20100;-48
2022/04/05 03:22:42;;;;;;;12.93;7.70;;;;;;;;;;5037170;28;20504;-51
2022/04/05 03:25:08;;;;;;;13.07;8.20;;;;;;;;;;5026891;28;20017;-46
2022/04/05 03:27:37;;;;;;;13.65;8.98;;;;;;;;;;5027081;28;20037;-50
2022/04/05 03:30:04;;;;;;;14.68;9.38;;;;;;;;;;5025354;28;20492;-46
2022/04/05 03:32:30;;;;;;;12.77;7.88;;;;;;;;;;5027522;28;20033;-46
2022/04/05 03:34:56;;;;;;;14.98;9.65;;;;;;;;;;5026709;28;20598;-49
2022/04/05 03:37:23;;;;;;;14.07;9.00;;;;;;;;;;5027173;28;20029;-48
2022/04/05 03:39:49;;;;;;;16.10;9.88;;;;;;;;;;5026656;28;20025;-46
2022/04/05 03:42:15;;;;;;;16.48;10.55;;;;;;;;;;5026483;28;20638;-48
2022/04/05 03:44:41;;;;;;;16.63;10.27;;;;;;;;;;5026368;28;20080;-47
2022/04/05 03:47:07;;;;;;;16.55;9.80;;;;;;;;;;5026514;28;20084;-48
2022/04/05 03:49:33;;;;;;;14.85;9.18;;;;;;;;;;5026863;28;20030;-49
2022/04/05 03:51:59;;;;;;;15.15;9.10;;;;;;;;;;5026081;28;20479;-47
2022/04/05 03:54:26;;;;;;;14.45;8.75;;;;;;;;;;5026675;28;20045;-49
2022/04/05 03:56:52;;;;;;;13.18;8.27;;;;;;;;;;5026819;28;20026;-46
2022/04/05 03:59:18;;;;;;;13.15;8.35;;;;;;;;;;5026276;28;20119;-49
2022/04/05 04:01:44;;;;;;;14.18;8.65;;;;;;;;;;5026234;28;20698;-49
2022/04/05 04:04:11;;;;;;;12.80;8.45;;;;;;;;;;5026151;28;20370;-47
2022/04/05 04:06:37;;;;;;;12.75;8.00;;;;;;;;;;5026404;28;20075;-48
2022/04/05 04:09:03;;;;;;;12.63;8.00;;;;;;;;;;5026479;28;20029;-47
2022/04/05 04:11:30;;;;;;;12.07;8.30;;;;;;;;;;5026619;28;20479;-49
2022/04/05 04:13:58;;;;;;;12.63;8.05;;;;;;;;;;5026074;28;20034;-48
2022/04/05 04:16:24;;;;;;;12.90;8.52;;;;;;;;;;5028066;28;20032;-47
2022/04/05 04:18:50;;;;;;;12.20;8.68;;;;;;;;;;5036653;28;20044;-47
2022/04/05 04:21:16;;;;;;;15.45;9.88;;;;;;;;;;5047565;28;20050;-48
2022/04/05 04:23:42;;;;;;;15.93;10.30;;;;;;;;;;5048754;28;20138;-50
2022/04/05 04:26:09;;;;;;;14.85;10.00;;;;;;;;;;5051580;28;20029;-46
2022/04/05 04:28:35;;;;;;;15.05;9.50;;;;;;;;;;5039274;28;20025;-49
2022/04/05 04:31:01;;;;;;;13.93;9.60;;;;;;;;;;5031600;28;20021;-49
2022/04/05 04:33:27;;;;;;;14.70;9.88;;;;;;;;;;5031567;28;20026;-48
2022/04/05 04:35:53;;;;;;;15.15;9.60;;;;;;;;;;5031881;28;20021;-46
2022/04/05 04:38:19;;;;;;;14.45;9.32;;;;;;;;;;5031812;28;20041;-46
2022/04/05 04:40:50;;;;;;;13.50;8.82;;;;;;;;;;5031524;28;20036;-50
2022/04/05 04:43:16;;;;;;;14.35;8.93;;;;;;;;;;5031727;28;20428;-46
2022/04/05 04:45:43;;;;;;;12.32;7.88;;;;;;;;;;5031104;28;20033;-48
2022/04/05 04:48:09;;;;;;;12.52;8.32;;;;;;;;;;5031067;28;20447;-50
2022/04/05 04:50:35;;;;;;;11.85;8.52;;;;;;;;;;5031540;28;20441;-47
2022/04/05 04:53:01;;;;;;;15.70;9.60;;;;;;;;;;5031220;28;20030;-49
2022/04/05 04:55:28;;;;;;;16.92;10.48;;;;;;;;;;5031398;28;20185;-50
2022/04/05 04:57:54;;;;;;;16.25;10.85;;;;;;;;;;5031293;28;20033;-47
2022/04/05 05:00:20;;;;;;;19.52;11.27;;;;;;;;;;5035153;28;20743;-49
2022/04/05 05:02:50;;;;;;;16.42;11.05;;;;;;;;;;5049511;28;20692;-49
2022/04/05 05:05:17;;;;;;;18.13;10.55;;;;;;;;;;5042624;28;20526;-49
2022/04/05 05:07:44;;;;;;;15.10;10.27;;;;;;;;;;5029542;28;20032;-49
2022/04/05 05:10:11;;;;;;;16.38;10.30;;;;;;;;;;5039544;28;20102;-51
2022/04/05 05:12:41;;;;;;;20.00;12.77;;;;;;;;;;5049583;28;20017;-49
2022/04/05 05:15:08;;;;;;;24.38;15.73;;;;;;;;;;5049754;28;20029;-50
2022/04/05 05:17:35;;;;;;;20.70;14.80;;;;;;;;;;5043521;28;20022;-47
2022/04/05 05:20:02;;;;;;;20.70;13.00;;;;;;;;;;5029562;28;20037;-47
2022/04/05 05:22:28;;;;;;;19.02;12.35;;;;;;;;;;5042123;28;20119;-50
2022/04/05 05:24:54;;;;;;;23.67;13.88;;;;;;;;;;5028729;28;20104;-50
2022/04/05 05:27:20;;;;;;;19.38;11.10;;;;;;;;;;5029955;28;20138;-49
2022/04/05 05:29:46;;;;;;;19.13;11.88;;;;;;;;;;5044318;28;20033;-48
2022/04/05 05:32:13;;;;;;;15.60;11.15;;;;;;;;;;5048695;28;20044;-46
2022/04/05 05:34:40;;;;;;;16.90;11.57;;;;;;;;;;5044462;28;20037;-49
2022/04/05 05:37:06;;;;;;;17.23;11.02;;;;;;;;;;5029717;28;20025;-49
2022/04/05 05:39:33;;;;;;;17.73;11.05;;;;;;;;;;5029048;28;20025;-51
2022/04/05 05:41:59;;;;;;;15.32;10.68;;;;;;;;;;5033956;28;20025;-46
2022/04/05 05:44:25;;;;;;;14.98;9.88;;;;;;;;;;5028931;28;20423;-51
2022/04/05 05:46:51;;;;;;;14.27;9.40;;;;;;;;;;5028320;28;20037;-51
2022/04/05 05:49:18;;;;;;;14.15;9.57;;;;;;;;;;5028594;28;20022;-51
2022/04/05 05:51:44;;;;;;;13.73;9.20;;;;;;;;;;5028070;28;20033;-51
2022/04/05 05:54:10;;;;;;;13.60;9.00;;;;;;;;;;5045247;28;20112;-47
2022/04/05 05:56:36;;;;;;;15.20;10.45;;;;;;;;;;5049066;28;20033;-49
2022/04/05 05:59:02;;;;;;;22.02;11.80;;;;;;;;;;5048140;28;20446;-47
2022/04/05 06:01:28;;;;;;;19.02;11.23;;;;;;;;;;5037058;28;20124;-50
2022/04/05 06:03:54;;;;;;;20.00;12.80;;;;;;;;;;5026938;28;20461;-49
2022/04/05 06:06:21;;;;;;;22.80;13.82;;;;;;;;;;5027688;28;20789;-51
2022/04/05 06:08:47;;;;;;;26.17;15.85;;;;;;;;;;5032055;28;20389;-49
2022/04/05 06:11:13;;;;;;;23.88;15.20;;;;;;;;;;5030108;28;20029;-49
2022/04/05 06:13:40;;;;;;;23.20;14.05;;;;;;;;;;5027886;28;20029;-49
2022/04/05 06:16:09;;;;;;;22.90;13.68;;;;;;;;;;5058725;28;20033;-49
2022/04/05 06:18:35;;;;;;;21.95;13.25;;;;;;;;;;5028718;28;20408;-51
2022/04/05 06:21:02;;;;;;;20.73;12.77;;;;;;;;;;5026076;28;20037;-47
2022/04/05 06:23:29;;;;;;;24.20;13.02;;;;;;;;;;5025092;28;20061;-49
2022/04/05 06:25:55;;;;;;;20.52;11.93;;;;;;;;;;5028422;28;20025;-49
2022/04/05 06:28:21;;;;;;;20.75;11.57;;;;;;;;;;5029216;28;20031;-49
2022/04/05 06:30:47;;;;;;;16.08;10.27;;;;;;;;;;5027259;28;20476;-51
2022/04/05 06:33:17;;;;;;;14.93;9.57;;;;;;;;;;5035327;28;20025;-48
2022/04/05 06:35:47;;;;;;;16.63;9.98;;;;;;;;;;5030766;28;20029;-48
2022/04/05 06:38:14;;;;;;;13.63;8.95;;;;;;;;;;5027153;28;20029;-50
2022/04/05 06:40:43;;;;;;;15.70;9.95;;;;;;;;;;5038588;28;20094;-46
2022/04/05 06:43:10;;;;;;;13.43;9.07;;;;;;;;;;5035037;28;20025;-50
2022/04/05 06:45:36;;;;;;;14.00;9.07;;;;;;;;;;5043661;28;20396;-49
2022/04/05 06:48:03;;;;;;;12.93;8.63;;;;;;;;;;5038918;28;20052;-49
2022/04/05 06:50:30;;;;;;;12.82;8.63;;;;;;;;;;5034706;28;20036;-51
2022/04/05 06:52:57;;;;;;;11.90;8.13;;;;;;;;;;5032015;28;20036;-49
2022/04/05 06:55:23;;;;;;;12.02;7.72;;;;;;;;;;5038862;28;20034;-50
2022/04/05 06:57:50;;;;;;;12.50;7.80;;;;;;;;;;5028102;28;20036;-49
2022/04/05 07:00:23;;;;;;;12.60;7.70;;;;;;;;;;5035120;28;20064;-50
2022/04/05 07:02:51;;;;;;;9.73;7.10;;;;;;;;;;5030671;28;20033;-48
2022/04/05 07:05:17;;;;;;;10.70;6.60;;;;;;;;;;5044257;28;20562;-48
2022/04/05 07:07:44;;;;;;;10.50;6.90;;;;;;;;;;5044724;28;20056;-49
2022/04/05 07:10:12;;;;;;;11.57;7.07;;;;;;;;;;5030690;28;20041;-48
2022/04/05 07:12:39;;;;;;;13.27;7.47;;;;;;;;;;5026347;28;20021;-50
2022/04/05 07:15:07;;;;;;;10.60;6.95;;;;;;;;;;5026108;28;20026;-49
2022/04/05 07:17:33;;;;;;;10.40;6.45;;;;;;;;;;5026244;28;20025;-50
2022/04/05 07:20:00;;;;;;;11.13;7.25;;;;;;;;;;5030726;28;20039;-49
2022/04/05 07:22:26;;;;;;;9.65;6.03;;;;;;;;;;5041246;28;20039;-50
2022/04/05 07:24:53;;;;;;;9.45;6.82;;;;;;;;;;5037086;28;20036;-47
2022/04/05 07:27:19;;;;;;;8.98;6.25;;;;;;;;;;5035402;28;20610;-51
2022/04/05 07:29:46;;;;;;;9.68;6.50;;;;;;;;;;5033879;28;20024;-51
2022/04/05 07:32:12;;;;;;;9.95;6.72;;;;;;;;;;5046821;28;20028;-47
2022/04/05 07:34:38;;;;;;;7.78;5.93;;;;;;;;;;5066260;28;20021;-50
2022/04/05 07:37:04;;;;;;;9.05;5.60;;;;;;;;;;5048146;28;20044;-49
2022/04/05 07:39:30;;;;;;;7.57;5.40;;;;;;;;;;5031738;28;20504;-48
2022/04/05 07:41:57;;;;;;;7.53;5.40;;;;;;;;;;5045652;28;20108;-51
2022/04/05 07:44:24;;;;;;;8.15;5.75;;;;;;;;;;5046085;28;20484;-47
2022/04/05 07:46:50;;;;;;;9.32;5.88;;;;;;;;;;5041311;28;20462;-51
2022/04/05 07:49:16;;;;;;;8.60;5.63;;;;;;;;;;5026787;28;20028;-51
2022/04/05 07:51:42;;;;;;;8.77;5.70;;;;;;;;;;5025964;28;20029;-51
2022/04/05 07:54:09;;;;;;;8.93;5.78;;;;;;;;;;5026228;28;20511;-51
2022/04/05 07:56:35;;;;;;;7.97;5.40;;;;;;;;;;5029461;28;20051;-51
2022/04/05 07:59:02;;;;;;;8.48;5.13;;;;;;;;;;5043326;28;20089;-48
2022/04/05 08:01:29;;;;;;;7.85;5.30;;;;;;;;;;5045760;28;20098;-51
2022/04/05 08:03:57;;;;;;;7.03;4.90;;;;;;;;;;5037837;28;20038;-47
2022/04/05 08:06:28;;;;;;;6.03;4.75;;;;;;;;;;5025834;28;20136;-51
2022/04/05 08:08:55;;;;;;;6.10;4.55;;;;;;;;;;5025910;28;20039;-50
2022/04/05 08:11:21;;;;;;;6.53;4.65;;;;;;;;;;5041913;28;20427;-50
2022/04/05 08:13:47;;;;;;;6.63;4.43;;;;;;;;;;5046034;28;20025;-53
2022/04/05 08:16:13;;;;;;;5.78;4.57;;;;;;;;;;5042853;28;20468;-51
2022/04/05 08:18:39;;;;;;;5.85;4.07;;;;;;;;;;5044473;28;20112;-50
2022/04/05 08:21:05;;;;;;;5.53;3.92;;;;;;;;;;5035131;28;20388;-50
2022/04/05 08:23:31;;;;;;;5.05;3.80;;;;;;;;;;5026006;28;20036;-51
2022/04/05 08:25:59;;;;;;;6.15;4.75;;;;;;;;;;5025273;28;20135;-52
2022/04/05 08:28:26;;;;;;;4.45;3.25;;;;;;;;;;5028309;28;20104;-51
2022/04/05 08:30:53;;;;;;;5.80;3.97;;;;;;;;;;5038297;28;20060;-52
2022/04/05 08:33:19;;;;;;;8.40;5.38;;;;;;;;;;5032909;28;20408;-52
2022/04/05 08:35:45;;;;;;;7.03;4.70;;;;;;;;;;5029443;28;20030;-51
2022/04/05 08:38:12;;;;;;;6.60;4.22;;;;;;;;;;5036676;28;20025;-47
2022/04/05 08:40:39;;;;;;;6.60;4.43;;;;;;;;;;5030709;28;20038;-51
2022/04/05 08:43:05;;;;;;;9.05;5.40;;;;;;;;;;5041507;28;20037;-51
2022/04/05 08:45:31;;;;;;;7.63;4.82;;;;;;;;;;5045487;28;20055;-51
2022/04/05 08:47:58;;;;;;;6.85;4.55;;;;;;;;;;5045241;28;20041;-52
2022/04/05 08:50:29;;;;;;;6.80;4.43;;;;;;;;;;5044774;28;20211;-50
2022/04/05 08:52:57;;;;;;;4.97;3.83;;;;;;;;;;5044828;28;20243;-51
2022/04/05 08:55:24;;;;;;;5.65;4.13;;;;;;;;;;5043822;28;20463;-51
2022/04/05 08:57:50;;;;;;;4.50;3.30;;;;;;;;;;5045279;28;20090;-48
2022/04/05 09:00:22;;;;;;;5.43;3.47;;;;;;;;;;5046012;28;20396;-52
2022/04/05 09:02:56;;;;;;;4.53;3.10;;;;;;;;;;5045226;28;20106;-50
2022/04/05 09:05:31;;;;;;;6.18;3.95;;;;;;;;;;5045263;28;20033;-51
2022/04/05 09:08:13;;;;;;;4.10;3.05;;;;;;;;;;5045079;28;20029;-49
2022/04/05 09:10:39;;;;;;;4.00;3.10;;;;;;;;;;5031717;28;20036;-50
2022/04/05 09:13:09;;;;;;;4.57;3.08;;;;;;;;;;5029145;28;20056;-52
2022/04/05 09:15:36;;;;;;;3.92;2.67;;;;;;;;;;5029097;28;20037;-51
2022/04/05 09:18:05;;;;;;;3.42;2.63;;;;;;;;;;5028768;28;20426;-51
2022/04/05 09:20:31;;;;;;;3.38;2.60;;;;;;;;;;5031332;28;20037;-51
2022/04/05 09:23:01;;;;;;;3.30;2.22;;;;;;;;;;5037446;28;20048;-50
2022/04/05 09:25:27;;;;;;;4.65;3.22;;;;;;;;;;5037704;28;20032;-51
2022/04/05 09:27:55;;;;;;;3.33;2.67;;;;;;;;;;5048448;28;20421;-52
2022/04/05 09:30:27;;;;;;;4.20;2.50;;;;;;;;;;5042833;28;20496;-50
2022/04/05 09:32:54;;;;;;;2.65;2.22;;;;;;;;;;5028321;28;20017;-49
2022/04/05 09:35:21;;;;;;;3.63;2.50;;;;;;;;;;5029334;28;20036;-48
2022/04/05 09:37:48;;;;;;;6.43;3.78;;;;;;;;;;5028837;28;20390;-53
2022/04/05 09:40:15;;;;;;;5.65;3.67;;;;;;;;;;5037417;28;20090;-48
2022/04/05 09:43:00;;;;;;;5.72;2.88;;;;;;;;;;5039533;28;20075;-49
2022/04/05 09:45:46;;;;;;;4.38;2.70;;;;;;;;;;5033600;28;20043;-50
2022/04/05 09:48:13;;;;;;;4.80;2.92;;;;;;;;;;5048058;28;20110;-51
2022/04/05 09:51:01;;;;;;;3.45;2.30;;;;;;;;;;5047684;28;20044;-49
2022/04/05 09:53:39;;;;;;;3.15;2.45;;;;;;;;;;5044852;28;20013;-50
2022/04/05 09:56:13;;;;;;;3.70;2.70;;;;;;;;;;5053015;28;20104;-52
2022/04/05 09:58:44;;;;;;;3.97;2.72;;;;;;;;;;5048027;28;20021;-49
2022/04/05 10:01:11;;;;;;;4.82;3.17;;;;;;;;;;5047418;28;20404;-52
2022/04/05 10:03:42;;;;;;;3.90;2.60;;;;;;;;;;5037344;28;20650;-52
2022/04/05 10:06:08;;;;;;;3.38;2.55;;;;;;;;;;5047842;28;20536;-48
2022/04/05 10:08:38;;;;;;;3.35;2.38;;;;;;;;;;5048011;28;20508;-48
2022/04/05 10:11:05;;;;;;;2.88;2.20;;;;;;;;;;5046132;28;20029;-52
2022/04/05 10:13:31;;;;;;;4.55;2.95;;;;;;;;;;5029075;28;20025;-52
2022/04/05 10:16:00;;;;;;;3.10;2.40;;;;;;;;;;5029028;28;20140;-52
2022/04/05 10:18:31;;;;;;;3.17;2.50;;;;;;;;;;5029547;28;20485;-50
2022/04/05 10:20:59;;;;;;;3.00;2.10;;;;;;;;;;5037733;28;20857;-48
2022/04/05 10:23:25;;;;;;;3.30;2.00;;;;;;;;;;5028909;28;20033;-52
2022/04/05 10:25:53;;;;;;;2.35;1.65;;;;;;;;;;5045818;28;20025;-48
2022/04/05 10:28:23;;;;;;;2.72;1.77;;;;;;;;;;5047016;28;20096;-52
2022/04/05 10:30:56;;;;;;;2.92;2.03;;;;;;;;;;5046699;28;20039;-51
2022/04/05 10:33:31;;;;;;;2.43;1.70;;;;;;;;;;5045179;28;20025;-48
2022/04/05 10:35:59;;;;;;;2.20;1.70;;;;;;;;;;5039071;28;20033;-52
2022/04/05 10:38:27;;;;;;;3.63;2.08;;;;;;;;;;5028087;28;20103;-48
2022/04/05 10:41:11;;;;;;;2.22;1.88;;;;;;;;;;5028281;28;20033;-50
2022/04/05 10:43:38;;;;;;;2.00;1.30;;;;;;;;;;5038261;28;20618;-52
2022/04/05 10:46:08;;;;;;;2.63;1.88;;;;;;;;;;5035372;28;20109;-52
2022/04/05 10:48:34;;;;;;;3.33;2.25;;;;;;;;;;5027649;28;20053;-50
2022/04/05 10:51:00;;;;;;;3.20;1.80;;;;;;;;;;5028085;28;20028;-51
2022/04/05 10:53:33;;;;;;;2.65;2.00;;;;;;;;;;5028842;28;20219;-50
2022/04/05 10:56:07;;;;;;;2.92;1.67;;;;;;;;;;5027233;28;20017;-50
2022/04/05 10:58:48;;;;;;;3.00;2.10;;;;;;;;;;5026109;28;20040;-50
2022/04/05 11:01:39;;;;;;;3.35;2.28;;;;;;;;;;5034025;28;20052;-51
2022/04/05 11:04:18;;;;;;;3.95;2.30;;;;;;;;;;5026827;28;20049;-51
2022/04/05 11:07:01;;;;;;;1.92;1.67;;;;;;;;;;5026895;28;20060;-52
2022/04/05 11:09:34;;;;;;;3.72;2.05;;;;;;;;;;5025519;28;20030;-49
2022/04/05 11:12:01;;;;;;;3.67;1.90;;;;;;;;;;5025275;28;20029;-52
2022/04/05 11:14:37;;;;;;;3.20;2.10;;;;;;;;;;5026013;28;20391;-52
2022/04/05 11:17:05;;;;;;;2.70;1.92;;;;;;;;;;5025414;28;20033;-53
2022/04/05 11:19:34;;;;;;;2.10;1.50;;;;;;;;;;5025471;28;20104;-50
2022/04/05 11:22:04;;;;;;;3.30;2.33;;;;;;;;;;5025279;28;20060;-53
2022/04/05 11:24:48;;;;;;;2.30;1.80;;;;;;;;;;5025104;28;20025;-52
2022/04/05 11:27:14;;;;;;;;;;;;;;;;;;5025755;28;20030;-50
2022/04/05 11:29:40;;;;;;;3.75;2.60;;;;;;;;;;5024762;28;19995;-51
2022/04/05 11:32:07;;;;;;;3.00;2.10;;;;;;;;;;5024989;28;20025;-51
2022/04/05 11:34:34;;;;;;;5.38;3.28;;;;;;;;;;5024407;28;20596;-49
2022/04/05 11:37:00;;;;;;;4.97;2.55;;;;;;;;;;5025050;28;20052;-53
2022/04/05 11:39:27;;;;;;;4.13;2.35;;;;;;;;;;5024852;28;20029;-48
2022/04/05 11:42:00;;;;;;;7.15;3.85;;;;;;;;;;5024857;28;20036;-49
2022/04/05 11:44:26;;;;;;;5.10;3.72;;;;;;;;;;5025337;28;20443;-49
2022/04/05 11:46:53;;;;;;;6.22;3.78;;;;;;;;;;5024530;28;20496;-52
2022/04/05 11:49:20;;;;;;;5.18;3.50;;;;;;;;;;5024992;28;20061;-52
2022/04/05 11:51:48;;;;;;;4.10;3.30;;;;;;;;;;5025152;28;20051;-49
2022/04/05 11:54:17;;;;;;;4.43;2.78;;;;;;;;;;5024576;28;20084;-49
2022/04/05 11:56:44;;;;;;;4.28;3.30;;;;;;;;;;5024475;28;20413;-49
2022/04/05 11:59:11;;;;;;;3.90;2.85;;;;;;;;;;5023389;28;20449;-50
2022/04/05 12:01:39;;;;;;;10.05;5.05;;;;;;;;;;5024374;28;20031;-48
2022/04/05 12:04:16;;;;;;;6.05;4.00;;;;;;;;;;5024362;28;20049;-52
2022/04/05 12:06:44;;;;;;;4.70;3.40;;;;;;;;;;5024491;28;20032;-52
2022/04/05 12:09:11;;;;;;;3.97;2.92;;;;;;;;;;5024277;28;20065;-52
2022/04/05 12:11:38;;;;;;;3.55;2.70;;;;;;;;;;5024322;28;20029;-52
2022/04/05 12:14:09;;;;;;;3.53;2.50;;;;;;;;;;5024393;28;20068;-52
2022/04/05 12:16:46;;;;;;;2.80;2.30;;;;;;;;;;5024519;28;20025;-52
2022/04/05 12:19:16;;;;;;;2.25;1.80;;;;;;;;;;5024487;28;20040;-52
2022/04/05 12:21:43;;;;;;;2.05;1.85;;;;;;;;;;5024060;28;20429;-52
2022/04/05 12:24:09;;;;;;;3.03;2.30;;;;;;;;;;5024091;28;20037;-50
2022/04/05 12:26:35;;;;;;;2.38;1.98;;;;;;;;;;5024148;28;20052;-49
2022/04/05 12:29:02;;;;;;;3.47;2.50;;;;;;;;;;5024087;28;20061;-49
2022/04/05 12:31:29;;;;;;;3.55;2.45;;;;;;;;;;5024072;28;20026;-51
2022/04/05 12:34:13;;;;;;;4.38;3.00;;;;;;;;;;5023989;28;20025;-49
2022/04/05 12:36:45;;;;;;;2.95;2.55;;;;;;;;;;5024258;28;20325;-51
2022/04/05 12:39:27;;;;;;;4.90;3.42;;;;;;;;;;5023827;28;20079;-53
2022/04/05 12:41:59;;;;;;;3.60;2.45;;;;;;;;;;5024127;28;20112;-51
2022/04/05 12:44:29;;;;;;;2.90;2.17;;;;;;;;;;5024117;28;20033;-48
2022/04/05 12:46:58;;;;;;;2.25;1.95;;;;;;;;;;5026884;28;20040;-49
2022/04/05 12:49:32;;;;;;;2.80;2.33;;;;;;;;;;5028046;28;20548;-52
2022/04/05 12:52:27;;;;;;;2.33;2.13;;;;;;;;;;5027991;28;20033;-49
2022/04/05 12:54:53;;;;;;;3.00;2.35;;;;;;;;;;5028019;28;20041;-49
2022/04/05 12:57:33;;;;;;;4.97;3.10;;;;;;;;;;5048334;28;20025;-53
2022/04/05 13:00:09;;;;;;;2.72;2.22;;;;;;;;;;5043942;28;20033;-51
2022/04/05 13:02:39;;;;;;;2.47;1.67;;;;;;;;;;5047954;28;20500;-52
2022/04/05 13:08:11;;;;;;;1.83;1.30;;;;;;;;;;5041460;28;20039;-51
2022/04/05 13:10:40;;;;;;;1.42;1.15;;;;;;;;;;5029214;28;20033;-51
2022/04/05 13:13:19;;;;;;;1.73;1.30;;;;;;;;;;5035553;28;20021;-52
2022/04/05 13:15:46;;;;;;;1.13;1.02;;;;;;;;;;5048744;28;20443;-56
2022/04/05 13:18:14;;;;;;;1.48;1.30;;;;;;;;;;5059002;28;20028;-52
2022/04/05 13:20:40;;;;;;;1.35;0.90;;;;;;;;;;5050542;28;20526;-52
2022/04/05 13:23:08;;;;;;;2.78;1.88;;;;;;;;;;5048694;28;20131;-53
2022/04/05 13:25:35;;;;;;;1.48;1.30;;;;;;;;;;5039676;28;20432;-52
2022/04/05 13:28:02;;;;;;;1.42;1.10;;;;;;;;;;5029216;28;20040;-53
2022/04/05 13:30:28;;;;;;;0.95;0.88;;;;;;;;;;5029277;28;20439;-53
2022/04/05 13:33:07;;;;;;;0.80;0.80;;;;;;;;;;5033010;28;20832;-49
2022/04/05 13:35:33;;;;;;;0.88;0.85;;;;;;;;;;5029242;28;20029;-51
2022/04/05 13:37:59;;;;;;;1.27;0.95;;;;;;;;;;5034376;28;20111;-54
2022/04/05 13:40:26;;;;;;;1.58;1.00;;;;;;;;;;5048343;28;20055;-53
2022/04/05 13:42:53;;;;;;;1.10;0.90;;;;;;;;;;5048046;28;20057;-52
2022/04/05 13:45:20;;;;;;;1.13;1.02;;;;;;;;;;5046894;28;20033;-49
2022/04/05 13:47:46;;;;;;;1.77;1.55;;;;;;;;;;5048137;28;20025;-52
2022/04/05 13:50:12;;;;;;;2.40;1.40;;;;;;;;;;5042290;28;20440;-52
2022/04/05 13:52:39;;;;;;;1.25;1.08;;;;;;;;;;5028254;28;20036;-51
2022/04/05 13:55:05;;;;;;;1.55;1.02;;;;;;;;;;5028260;28;20060;-52
2022/04/05 13:57:31;;;;;;;1.13;0.88;;;;;;;;;;5028432;28;20034;-53
2022/04/05 13:59:58;;;;;;;0.70;0.70;;;;;;;;;;5028747;28;20026;-51
2022/04/05 14:02:26;;;;;;;0.70;0.70;;;;;;;;;;5033844;28;20029;-50
2022/04/05 14:04:52;;;;;;;0.82;0.70;;;;;;;;;;5032637;28;20037;-51
2022/04/05 14:07:18;;;;;;;0.60;0.60;;;;;;;;;;5044483;28;20277;-53
2022/04/05 14:09:45;;;;;;;0.63;0.60;;;;;;;;;;5038622;28;20043;-52
2022/04/05 14:12:11;;;;;;;0.60;0.60;;;;;;;;;;5040342;28;20060;-53
2022/04/05 14:14:38;;;;;;;0.50;0.50;;;;;;;;;;5045328;28;20435;-49
2022/04/05 14:17:04;;;;;;;0.60;0.50;;;;;;;;;;5027073;28;20033;-55
2022/04/05 14:19:30;;;;;;;0.77;0.63;;;;;;;;;;5027614;28;20021;-52
2022/04/05 14:21:57;;;;;;;0.60;0.60;;;;;;;;;;5035328;28;20048;-52
2022/04/05 14:24:23;;;;;;;1.38;0.77;;;;;;;;;;5058450;28;20040;-53
2022/04/05 14:26:50;;;;;;;0.60;0.40;;;;;;;;;;5044626;28;20056;-53
2022/04/05 14:29:16;;;;;;;0.75;0.75;;;;;;;;;;5037633;28;20028;-52
2022/04/05 14:31:45;;;;;;;1.17;0.65;;;;;;;;;;5031890;28;20026;-50
2022/04/05 14:34:12;;;;;;;1.73;1.27;;;;;;;;;;5044863;28;20032;-53
2022/04/05 14:36:38;;;;;;;2.05;1.25;;;;;;;;;;5045680;28;20108;-52
2022/04/05 14:39:07;;;;;;;1.38;1.00;;;;;;;;;;5046424;28;20079;-53
2022/04/05 14:41:33;;;;;;;1.80;1.00;;;;;;;;;;5046620;28;20017;-53
2022/04/05 14:43:59;;;;;;;0.80;0.80;;;;;;;;;;5040319;28;20037;-52